Time;durP1;ratioP1;P1;durP2;ratioP2;P2;SDS_P1;SDS_P2;PMS_P1;PMS_P2;Temp;Humidity;BMP_temperature;BMP_pressure;BME280_temperature;BME280_humidity;BME280_pressure;Samples;Min_cycle;Max_cycle;Signal;HPM_P1;HPM_P2
2022/05/26 00:01:04;;;;;;;27.50;10.07;;;14.60;99.90;;;;;;4949401;28;38941;-77
2022/05/26 00:03:36;;;;;;;37.25;10.20;;;14.70;99.90;;;;;;4942205;28;38862;-75
2022/05/26 00:06:05;;;;;;;34.10;10.32;;;14.60;99.90;;;;;;4942559;28;38860;-75
2022/05/26 00:08:32;;;;;;;27.77;9.10;;;14.70;99.90;;;;;;4945379;28;38497;-75
2022/05/26 00:11:00;;;;;;;29.90;9.07;;;14.60;99.90;;;;;;4946288;28;39826;-75
2022/05/26 00:13:26;;;;;;;38.33;9.55;;;14.60;99.90;;;;;;4942126;28;38605;-74
2022/05/26 00:15:52;;;;;;;28.88;8.90;;;14.60;99.90;;;;;;4940126;28;38567;-75
2022/05/26 00:18:19;;;;;;;39.63;9.75;;;14.60;99.90;;;;;;4945800;28;38084;-74
2022/05/26 00:20:45;;;;;;;34.03;9.68;;;14.70;99.90;;;;;;4940891;28;38573;-75
2022/05/26 00:23:11;;;;;;;25.58;8.55;;;14.70;99.90;;;;;;4942061;28;40189;-74
2022/05/26 00:25:39;;;;;;;32.00;8.73;;;14.70;99.90;;;;;;4943339;28;39657;-75
2022/05/26 00:28:05;;;;;;;32.33;9.73;;;14.70;99.90;;;;;;4933198;28;38111;-75
2022/05/26 00:30:33;;;;;;;25.67;6.78;;;14.70;99.90;;;;;;4948316;28;38837;-76
2022/05/26 00:32:59;;;;;;;31.75;7.30;;;14.70;99.90;;;;;;4954379;28;40169;-75
2022/05/26 00:35:27;;;;;;;26.77;7.15;;;14.80;99.90;;;;;;4946487;28;38516;-75
2022/05/26 00:37:53;;;;;;;32.55;6.65;;;14.80;99.90;;;;;;4944438;28;37907;-76
2022/05/26 00:40:19;;;;;;;32.17;6.78;;;14.90;99.90;;;;;;4951695;28;39602;-75
2022/05/26 00:42:46;;;;;;;29.02;6.40;;;14.90;99.90;;;;;;4939481;28;39738;-75
2022/05/26 00:45:12;;;;;;;35.20;6.47;;;14.90;99.90;;;;;;4940947;28;40983;-76
2022/05/26 00:47:44;;;;;;;30.55;6.72;;;15.00;99.90;;;;;;4958305;28;38995;-75
2022/05/26 00:50:19;;;;;;;26.85;5.47;;;15.00;99.90;;;;;;4944885;28;38856;-75
2022/05/26 00:52:51;;;;;;;32.33;7.50;;;15.00;99.90;;;;;;4945987;28;39818;-75
2022/05/26 00:55:35;;;;;;;25.65;5.15;;;15.00;99.90;;;;;;4956430;28;39363;-76
2022/05/26 00:58:09;;;;;;;27.50;6.10;;;15.00;99.90;;;;;;4941569;28;38092;-76
2022/05/26 01:00:38;;;;;;;36.33;6.38;;;15.10;99.90;;;;;;4941614;28;47308;-76
2022/05/26 01:03:27;;;;;;;33.70;6.50;;;15.10;99.90;;;;;;4946462;28;38881;-76
2022/05/26 01:06:10;;;;;;;31.75;6.00;;;15.10;99.90;;;;;;4941027;28;40302;-76
2022/05/26 01:09:00;;;;;;;33.63;5.95;;;15.00;99.90;;;;;;4942085;28;47258;-76
2022/05/26 01:11:30;;;;;;;33.45;6.75;;;15.10;99.90;;;;;;4936155;28;48461;-75
2022/05/26 01:14:04;;;;;;;31.58;6.03;;;15.10;99.90;;;;;;4937029;28;39064;-75
2022/05/26 01:16:39;;;;;;;26.80;5.60;;;15.10;99.90;;;;;;4938950;28;49777;-76
2022/05/26 01:19:41;;;;;;;28.90;5.05;;;15.10;99.90;;;;;;4948807;28;38185;-75
2022/05/26 01:22:16;;;;;;;26.45;4.97;;;15.10;99.90;;;;;;4938750;28;38436;-76
2022/05/26 01:25:23;;;;;;;27.63;5.80;;;15.10;99.90;;;;;;4956866;28;39608;-75
2022/05/26 01:28:23;;;;;;;30.58;5.70;;;15.10;99.90;;;;;;4938481;28;44608;-76
2022/05/26 01:31:09;;;;;;;26.88;5.28;;;15.20;99.90;;;;;;4935556;28;48611;-76
2022/05/26 01:34:02;;;;;;;24.13;5.47;;;15.10;99.90;;;;;;4956052;28;47045;-76
2022/05/26 01:36:46;;;;;;;31.42;6.68;;;15.10;99.90;;;;;;4940488;28;46609;-75
2022/05/26 01:39:42;;;;;;;35.20;6.97;;;15.10;99.90;;;;;;4958031;28;39977;-76
2022/05/26 01:42:19;;;;;;;32.58;5.55;;;15.10;99.90;;;;;;4946747;28;37279;-76
2022/05/26 01:45:13;;;;;;;29.17;5.63;;;15.10;99.90;;;;;;4947233;28;36408;-75
2022/05/26 01:48:00;;;;;;;32.05;6.32;;;15.10;99.90;;;;;;4948699;28;20155;-75
2022/05/26 01:50:52;;;;;;;25.00;5.25;;;15.10;99.90;;;;;;4958274;28;38904;-76
2022/05/26 01:53:30;;;;;;;24.27;4.70;;;15.00;99.90;;;;;;4939843;28;38946;-76
2022/05/26 01:56:10;;;;;;;25.98;5.82;;;15.00;99.90;;;;;;4946630;28;39238;-75
2022/05/26 01:58:41;;;;;;;23.75;4.97;;;15.00;99.90;;;;;;4943077;28;48372;-76
2022/05/26 02:01:12;;;;;;;23.43;5.60;;;15.00;99.90;;;;;;4943872;28;37885;-77
2022/05/26 02:03:40;;;;;;;30.48;5.07;;;15.00;99.90;;;;;;4956752;28;39252;-76
2022/05/26 02:06:15;;;;;;;23.60;5.10;;;15.00;99.90;;;;;;4949542;28;39764;-75
2022/05/26 02:08:48;;;;;;;24.67;5.03;;;15.00;99.90;;;;;;4941028;28;40532;-76
2022/05/26 02:11:20;;;;;;;27.20;5.18;;;15.00;99.90;;;;;;4945595;28;38603;-76
2022/05/26 02:14:05;;;;;;;23.95;4.72;;;15.00;99.90;;;;;;4944033;28;37763;-75
2022/05/26 02:17:05;;;;;;;20.05;4.68;;;15.00;99.90;;;;;;4945982;28;47183;-76
2022/05/26 02:19:39;;;;;;;23.55;5.22;;;14.90;99.90;;;;;;4945729;28;47081;-75
2022/05/26 02:22:41;;;;;;;23.63;5.75;;;14.90;99.90;;;;;;4961741;28;38685;-76
2022/05/26 02:25:16;;;;;;;29.33;5.88;;;14.90;99.90;;;;;;4935144;28;38937;-75
2022/05/26 02:27:42;;;;;;;21.42;4.88;;;14.90;99.90;;;;;;4962624;28;39728;-76
2022/05/26 02:30:12;;;;;;;18.40;4.35;;;14.90;99.90;;;;;;4948176;28;38918;-75
2022/05/26 02:32:46;;;;;;;23.48;4.25;;;14.80;99.90;;;;;;4947258;28;39508;-75
2022/05/26 02:35:21;;;;;;;22.17;4.78;;;14.80;99.90;;;;;;4932819;28;37965;-75
2022/05/26 02:37:52;;;;;;;26.45;4.40;;;14.80;99.90;;;;;;4943558;28;39403;-75
2022/05/26 02:40:19;;;;;;;21.52;4.82;;;14.80;99.90;;;;;;4940447;28;39098;-75
2022/05/26 02:42:55;;;;;;;25.52;5.28;;;14.90;99.90;;;;;;4943769;28;39008;-75
2022/05/26 02:45:35;;;;;;;20.35;4.43;;;14.90;99.90;;;;;;4940556;28;37887;-75
2022/05/26 02:48:34;;;;;;;24.67;4.63;;;14.90;99.90;;;;;;4956698;28;38536;-76
2022/05/26 02:51:24;;;;;;;20.30;4.07;;;14.90;99.90;;;;;;4948826;28;47171;-74
2022/05/26 02:54:03;;;;;;;20.15;4.28;;;14.90;99.90;;;;;;4937818;28;48702;-75
2022/05/26 02:57:05;;;;;;;24.48;4.25;;;14.90;99.90;;;;;;4940706;28;47280;-76
2022/05/26 02:59:41;;;;;;;16.00;3.50;;;14.90;99.90;;;;;;4937151;28;47224;-74
2022/05/26 03:02:27;;;;;;;16.83;3.55;;;14.90;99.90;;;;;;4954860;28;40413;-75
2022/05/26 03:05:25;;;;;;;15.23;3.70;;;14.90;99.90;;;;;;4944858;28;38474;-74
2022/05/26 03:07:55;;;;;;;21.15;3.88;;;14.90;99.90;;;;;;4938767;28;47144;-74
2022/05/26 03:10:27;;;;;;;16.15;3.35;;;14.90;99.90;;;;;;4939885;28;40063;-75
2022/05/26 03:12:54;;;;;;;16.58;3.72;;;14.90;99.90;;;;;;4939077;28;39673;-74
2022/05/26 03:15:21;;;;;;;19.95;4.30;;;14.90;99.90;;;;;;4940538;28;38775;-74
2022/05/26 03:17:47;;;;;;;15.68;3.45;;;14.80;99.90;;;;;;4940303;28;38563;-75
2022/05/26 03:20:14;;;;;;;20.92;3.65;;;14.80;99.90;;;;;;4939494;28;38665;-75
2022/05/26 03:22:40;;;;;;;20.90;4.68;;;14.80;99.90;;;;;;4938363;28;39082;-75
2022/05/26 03:25:06;;;;;;;13.32;3.20;;;14.80;99.90;;;;;;4936674;28;39000;-75
2022/05/26 03:27:33;;;;;;;16.08;3.40;;;14.70;99.90;;;;;;4939500;28;36465;-75
2022/05/26 03:29:59;;;;;;;15.38;3.08;;;14.70;99.90;;;;;;4937855;28;38590;-74
2022/05/26 03:32:25;;;;;;;14.93;3.40;;;14.70;99.90;;;;;;4935014;28;38939;-74
2022/05/26 03:43:09;;;;;;;14.05;3.38;;;14.60;99.90;;;;;;4945088;28;39483;-74
2022/05/26 03:45:36;;;;;;;12.80;3.10;;;14.50;99.90;;;;;;4951746;28;38006;-75
2022/05/26 03:48:03;;;;;;;15.40;3.60;;;14.50;99.90;;;;;;4945604;28;38230;-74
2022/05/26 03:50:30;;;;;;;17.77;3.10;;;14.50;99.90;;;;;;4964545;28;40507;-74
2022/05/26 03:52:56;;;;;;;15.48;3.03;;;14.50;99.90;;;;;;4961365;28;39398;-74
2022/05/26 03:55:24;;;;;;;19.60;4.05;;;14.40;99.90;;;;;;4944559;28;39361;-74
2022/05/26 03:57:50;;;;;;;16.27;3.28;;;14.40;99.90;;;;;;4940081;28;37946;-74
2022/05/26 04:00:21;;;;;;;13.35;3.63;;;14.40;99.90;;;;;;4946461;28;38621;-75
2022/05/26 04:02:47;;;;;;;21.73;3.65;;;14.40;99.90;;;;;;4944769;28;39247;-75
2022/05/26 04:05:14;;;;;;;16.52;3.90;;;14.30;99.90;;;;;;4946488;28;39584;-75
2022/05/26 04:07:40;;;;;;;15.25;3.20;;;14.30;99.90;;;;;;4942260;28;37311;-75
2022/05/26 04:10:09;;;;;;;17.05;3.40;;;14.30;99.90;;;;;;4959891;28;41763;-76
2022/05/26 04:12:37;;;;;;;13.85;2.80;;;14.30;99.90;;;;;;4947274;28;39455;-75
2022/05/26 04:15:05;;;;;;;10.57;2.72;;;14.30;99.90;;;;;;4945146;28;39338;-75
2022/05/26 04:17:31;;;;;;;13.68;3.47;;;14.30;99.90;;;;;;4939774;28;35419;-76
2022/05/26 04:19:57;;;;;;;13.88;3.30;;;14.30;99.90;;;;;;4945113;28;39626;-76
2022/05/26 04:22:23;;;;;;;14.98;3.03;;;14.40;99.90;;;;;;4947380;28;38525;-74
2022/05/26 04:24:53;;;;;;;16.70;3.00;;;14.40;99.90;;;;;;4938046;28;38194;-75
2022/05/26 04:27:21;;;;;;;11.10;2.83;;;14.50;99.90;;;;;;4957171;28;37834;-74
2022/05/26 04:29:47;;;;;;;10.30;2.67;;;14.50;99.90;;;;;;4951660;28;38749;-75
2022/05/26 04:32:13;;;;;;;14.88;3.13;;;14.60;99.90;;;;;;4944971;28;39651;-74
2022/05/26 04:34:41;;;;;;;12.93;3.00;;;14.50;99.90;;;;;;4962925;28;40289;-73
2022/05/26 04:37:07;;;;;;;16.98;3.35;;;14.50;99.90;;;;;;4955461;28;38383;-74
2022/05/26 04:39:34;;;;;;;19.60;3.30;;;14.60;99.90;;;;;;4942696;28;37765;-74
2022/05/26 04:42:03;;;;;;;10.60;2.83;;;14.60;99.90;;;;;;4936827;28;37797;-75
2022/05/26 04:44:35;;;;;;;12.30;3.22;;;14.60;99.90;;;;;;4950517;28;47243;-74
2022/05/26 04:47:02;;;;;;;19.88;3.35;;;14.60;99.90;;;;;;4938328;28;38935;-75
2022/05/26 04:49:29;;;;;;;9.73;2.92;;;14.60;99.90;;;;;;4944597;28;38620;-76
2022/05/26 04:51:55;;;;;;;17.48;3.38;;;14.60;99.90;;;;;;4939127;28;40938;-75
2022/05/26 04:54:22;;;;;;;13.93;2.97;;;14.70;99.90;;;;;;4939037;28;35788;-75
2022/05/26 04:56:49;;;;;;;13.15;2.60;;;14.60;99.90;;;;;;4940287;28;37424;-74
2022/05/26 04:59:16;;;;;;;13.73;3.10;;;14.70;99.90;;;;;;4947745;28;39773;-74
2022/05/26 05:01:42;;;;;;;10.50;2.47;;;14.70;99.90;;;;;;4942029;28;39809;-75
2022/05/26 05:04:08;;;;;;;11.48;2.67;;;14.70;99.90;;;;;;4940321;28;38562;-74
2022/05/26 05:06:34;;;;;;;9.98;2.45;;;14.80;99.90;;;;;;4940961;28;37352;-74
2022/05/26 05:09:01;;;;;;;11.18;2.90;;;14.90;99.90;;;;;;4956381;28;39708;-74
2022/05/26 05:11:28;;;;;;;13.10;2.72;;;15.00;99.90;;;;;;4958531;28;46895;-74
2022/05/26 05:13:54;;;;;;;15.93;3.53;;;15.00;99.90;;;;;;4941470;28;37623;-74
2022/05/26 05:16:31;;;;;;;12.55;2.75;;;15.10;99.90;;;;;;4938085;28;37782;-74
2022/05/26 05:18:57;;;;;;;11.77;2.58;;;15.30;99.90;;;;;;4959980;28;39093;-75
2022/05/26 05:21:45;;;;;;;15.00;2.58;;;15.40;99.90;;;;;;4948896;28;39304;-75
2022/05/26 05:24:44;;;;;;;16.40;3.45;;;15.70;99.90;;;;;;4941601;28;39561;-74
2022/05/26 05:27:22;;;;;;;9.70;2.88;;;15.80;99.90;;;;;;4937819;28;35777;-75
2022/05/26 05:29:52;;;;;;;15.07;3.47;;;15.80;99.90;;;;;;4946216;28;38643;-75
2022/05/26 05:32:29;;;;;;;11.85;2.38;;;15.90;99.90;;;;;;4960253;28;40245;-76
2022/05/26 05:35:08;;;;;;;16.88;3.88;;;15.90;99.90;;;;;;4946657;28;38166;-75
2022/05/26 05:37:35;;;;;;;16.40;3.33;;;15.90;99.90;;;;;;4943735;28;47811;-75
2022/05/26 05:40:01;;;;;;;13.65;3.20;;;16.00;99.90;;;;;;4943362;28;39462;-76
2022/05/26 05:42:29;;;;;;;12.30;2.90;;;16.10;99.90;;;;;;4939660;28;40728;-76
2022/05/26 05:44:56;;;;;;;9.10;2.75;;;16.10;99.90;;;;;;4940059;28;38900;-75
2022/05/26 05:47:22;;;;;;;11.90;3.10;;;16.20;99.90;;;;;;4945798;28;37079;-75
2022/05/26 05:49:49;;;;;;;17.17;3.40;;;16.40;99.90;;;;;;4944246;28;39628;-75
2022/05/26 05:52:19;;;;;;;11.48;2.67;;;16.60;99.90;;;;;;4938294;28;39449;-76
2022/05/26 05:54:45;;;;;;;14.60;2.83;;;16.70;99.90;;;;;;4953545;28;39072;-75
2022/05/26 05:57:11;;;;;;;12.35;2.85;;;16.90;99.90;;;;;;4953058;28;37956;-75
2022/05/26 05:59:37;;;;;;;15.95;3.40;;;16.90;99.90;;;;;;4944210;28;37997;-76
2022/05/26 06:02:04;;;;;;;13.52;2.90;;;16.80;99.90;;;;;;4936403;28;39526;-76
2022/05/26 06:04:30;;;;;;;12.40;2.75;;;16.60;99.90;;;;;;4950824;28;39490;-75
2022/05/26 06:06:58;;;;;;;11.65;2.38;;;16.80;99.90;;;;;;4950985;28;37868;-75
2022/05/26 06:09:24;;;;;;;9.98;2.30;;;17.00;99.90;;;;;;4930249;28;40706;-76
2022/05/26 06:11:50;;;;;;;10.63;2.08;;;17.10;99.90;;;;;;4937242;28;40164;-75
2022/05/26 06:14:16;;;;;;;9.55;2.22;;;17.10;99.90;;;;;;4936195;28;38611;-75
2022/05/26 06:16:44;;;;;;;10.75;2.40;;;17.20;99.90;;;;;;4951115;28;39026;-75
2022/05/26 06:19:11;;;;;;;8.43;2.17;;;17.20;99.90;;;;;;4944817;28;39652;-75
2022/05/26 06:21:38;;;;;;;10.45;2.30;;;17.30;99.90;;;;;;4935718;28;38846;-76
2022/05/26 06:24:05;;;;;;;9.73;2.00;;;17.30;99.90;;;;;;4935531;28;38567;-76
2022/05/26 06:26:31;;;;;;;11.48;2.95;;;17.30;99.90;;;;;;4952803;28;39859;-76
2022/05/26 06:37:13;;;;;;;6.75;2.05;;;17.30;99.90;;;;;;4947163;28;49553;-76
2022/05/26 06:37:16;;;;;;;10.88;2.58;;;17.70;99.90;;;;;;4943414;28;38920;-75
2022/05/26 06:39:44;;;;;;;9.25;2.22;;;17.60;99.90;;;;;;4944965;28;39520;-76
2022/05/26 06:42:10;;;;;;;10.95;1.83;;;17.70;99.90;;;;;;4955613;28;40368;-75
2022/05/26 06:44:43;;;;;;;11.43;2.45;;;17.80;99.90;;;;;;4945281;28;37329;-76
2022/05/26 06:47:10;;;;;;;;;;;17.80;99.90;;;;;;4941699;28;37318;-76
2022/05/26 06:49:38;;;;;;;10.07;2.50;;;18.00;99.90;;;;;;4960164;28;39612;-76
2022/05/26 06:52:05;;;;;;;9.18;2.10;;;18.00;99.90;;;;;;4939012;28;39375;-76
2022/05/26 06:54:34;;;;;;;13.20;2.50;;;18.00;99.90;;;;;;4942416;28;39053;-76
2022/05/26 06:57:00;;;;;;;8.88;2.22;;;17.80;99.90;;;;;;4943495;28;35868;-76
2022/05/26 06:59:27;;;;;;;8.80;1.80;;;17.90;99.90;;;;;;4956736;28;40364;-76
2022/05/26 07:01:53;;;;;;;6.30;1.80;;;18.20;99.90;;;;;;4936406;28;39698;-76
2022/05/26 07:04:19;;;;;;;9.95;2.72;;;18.10;99.90;;;;;;4946056;28;39215;-75
2022/05/26 07:06:53;;;;;;;8.55;2.15;;;17.80;99.90;;;;;;4949342;28;37116;-75
2022/05/26 07:09:21;;;;;;;8.07;1.88;;;17.60;99.90;;;;;;4939540;28;40601;-76
2022/05/26 07:11:47;;;;;;;7.90;2.03;;;17.60;99.90;;;;;;4944721;28;37606;-75
2022/05/26 07:14:14;;;;;;;12.75;3.22;;;17.70;99.90;;;;;;4942272;28;39294;-76
2022/05/26 07:16:41;;;;;;;8.98;2.53;;;18.10;99.90;;;;;;4945733;28;37033;-76
2022/05/26 07:19:08;;;;;;;12.70;1.95;;;18.40;99.90;;;;;;4948814;28;39533;-78
2022/05/26 07:21:34;;;;;;;8.77;1.90;;;18.40;99.90;;;;;;4964810;28;39594;-76
2022/05/26 07:24:00;;;;;;;8.55;2.15;;;18.40;99.90;;;;;;4958194;28;37380;-75
2022/05/26 07:26:28;;;;;;;10.63;2.05;;;18.50;99.90;;;;;;4938081;28;47897;-74
2022/05/26 07:28:55;;;;;;;9.77;1.75;;;18.70;99.90;;;;;;4948801;28;38681;-74
2022/05/26 07:31:21;;;;;;;6.10;1.40;;;18.60;99.90;;;;;;4952584;28;39004;-75
2022/05/26 07:33:47;;;;;;;7.53;2.05;;;18.70;99.90;;;;;;4937521;28;39133;-75
2022/05/26 07:41:44;;;;;;;9.27;2.05;;;18.30;99.90;;;;;;4947408;28;49586;-75
2022/05/26 07:44:11;;;;;;;9.23;2.10;;;17.90;99.90;;;;;;4958449;28;39266;-76
2022/05/26 07:46:37;;;;;;;9.05;2.13;;;17.80;99.90;;;;;;4942359;28;37664;-74
2022/05/26 07:49:05;;;;;;;10.93;2.17;;;18.00;99.90;;;;;;4962544;28;39397;-74
2022/05/26 07:51:31;;;;;;;6.35;1.80;;;18.50;99.90;;;;;;4951211;28;40341;-74
2022/05/26 07:54:00;;;;;;;8.55;2.00;;;18.70;99.90;;;;;;4947184;28;39570;-75
2022/05/26 07:56:36;;;;;;;11.73;2.15;;;18.70;99.90;;;;;;4949823;28;37256;-74
2022/05/26 07:59:04;;;;;;;7.70;1.80;;;19.20;99.90;;;;;;4951635;28;39925;-76
2022/05/26 08:01:32;;;;;;;8.98;1.42;;;19.70;99.90;;;;;;4942848;28;47287;-73
2022/05/26 08:03:58;;;;;;;13.20;1.88;;;19.90;99.90;;;;;;4963813;28;39601;-74
2022/05/26 08:06:25;;;;;;;6.68;1.58;;;19.70;99.90;;;;;;4945922;28;38021;-72
2022/05/26 08:08:51;;;;;;;6.68;1.50;;;19.50;99.90;;;;;;4946524;28;38994;-74
2022/05/26 08:11:18;;;;;;;7.88;1.92;;;19.30;99.90;;;;;;4963800;28;38607;-74
2022/05/26 08:13:44;;;;;;;8.35;2.15;;;19.20;99.90;;;;;;4954315;28;39425;-74
2022/05/26 08:16:10;;;;;;;8.82;1.70;;;18.80;99.90;;;;;;4962075;28;38078;-74
2022/05/26 08:18:36;;;;;;;7.50;1.92;;;18.40;99.90;;;;;;4943023;28;39084;-73
2022/05/26 08:21:07;;;;;;;8.07;2.13;;;18.20;99.90;;;;;;4956796;28;39707;-74
2022/05/26 08:23:34;;;;;;;7.25;1.65;;;18.20;99.90;;;;;;4943438;28;39261;-77
2022/05/26 08:26:00;;;;;;;10.55;1.95;;;18.10;99.90;;;;;;4943201;28;37202;-75
2022/05/26 08:28:26;;;;;;;5.68;1.55;;;18.60;99.90;;;;;;4945661;28;41156;-73
2022/05/26 08:30:52;;;;;;;10.27;2.38;;;19.20;99.90;;;;;;4943425;28;39310;-73
2022/05/26 08:33:18;;;;;;;7.60;1.85;;;19.60;99.90;;;;;;4956195;28;39187;-74
2022/05/26 08:35:44;;;;;;;6.72;1.50;;;19.60;99.90;;;;;;4925913;28;38311;-74
2022/05/26 08:38:10;;;;;;;7.53;1.75;;;19.50;99.90;;;;;;4943539;28;40328;-74
2022/05/26 08:40:49;;;;;;;9.18;1.73;;;19.50;99.90;;;;;;4949811;28;39638;-74
2022/05/26 08:43:23;;;;;;;5.22;1.58;;;19.70;99.90;;;;;;4949964;28;38109;-75
2022/05/26 08:45:52;;;;;;;7.45;2.30;;;19.20;99.90;;;;;;4948905;28;37801;-74
2022/05/26 08:48:56;;;;;;;8.32;1.85;;;18.90;99.90;;;;;;4944970;28;40848;-73
2022/05/26 08:51:44;;;;;;;6.22;1.77;;;19.10;99.90;;;;;;4947807;28;39244;-75
2022/05/26 08:54:16;;;;;;;11.63;2.30;;;19.00;99.90;;;;;;4942227;28;39121;-74
2022/05/26 08:56:43;;;;;;;8.80;2.20;;;18.80;99.90;;;;;;4943075;28;37709;-76
2022/05/26 08:59:13;;;;;;;8.80;2.50;;;18.70;99.90;;;;;;4943213;28;38505;-74
2022/05/26 09:01:39;;;;;;;9.15;2.33;;;18.90;99.90;;;;;;4944424;28;38062;-73
2022/05/26 09:04:06;;;;;;;11.38;2.40;;;19.20;99.90;;;;;;4944708;28;37550;-75
2022/05/26 09:12:55;;;;;;;7.78;2.30;;;19.20;99.90;;;;;;4950134;28;37270;-73
2022/05/26 09:15:04;;;;;;;7.43;1.90;;;19.30;99.90;;;;;;4945370;28;39089;-74
2022/05/26 09:17:32;;;;;;;7.10;2.05;;;19.20;99.90;;;;;;4945900;28;37617;-73
2022/05/26 09:20:05;;;;;;;9.40;2.22;;;19.60;99.90;;;;;;4962951;28;39091;-73
2022/05/26 09:22:46;;;;;;;7.07;1.92;;;19.70;99.90;;;;;;4946860;28;48246;-72
2022/05/26 09:25:53;;;;;;;7.00;2.20;;;19.60;99.90;;;;;;4946813;28;39542;-72
2022/05/26 09:28:30;;;;;;;8.75;1.98;;;19.60;99.90;;;;;;4937420;28;37914;-73
2022/05/26 09:31:19;;;;;;;13.00;2.30;;;20.00;99.90;;;;;;4928663;28;38122;-72
2022/05/26 09:34:00;;;;;;;7.75;2.08;;;19.80;99.90;;;;;;4958532;28;47509;-75
2022/05/26 09:36:31;;;;;;;7.15;1.85;;;19.70;99.90;;;;;;4939240;28;39329;-74
2022/05/26 09:38:58;;;;;;;9.35;2.42;;;19.50;99.90;;;;;;4947954;28;37424;-74
2022/05/26 09:41:25;;;;;;;10.15;2.20;;;18.90;99.90;;;;;;4946033;28;40345;-73
2022/05/26 09:43:58;;;;;;;11.38;2.55;;;19.00;99.90;;;;;;4963152;28;37856;-73
2022/05/26 09:46:26;;;;;;;9.30;2.50;;;19.50;99.90;;;;;;4942405;28;37920;-75
2022/05/26 09:49:02;;;;;;;11.85;2.40;;;20.20;99.90;;;;;;4954413;28;36193;-75
2022/05/26 09:51:39;;;;;;;8.02;1.98;;;20.20;99.90;;;;;;4957276;28;47304;-73
2022/05/26 09:54:28;;;;;;;9.13;1.98;;;20.40;99.90;;;;;;4934965;28;37591;-74
2022/05/26 09:56:54;;;;;;;10.57;2.40;;;20.60;99.90;;;;;;4961342;28;38082;-74
2022/05/26 09:59:28;;;;;;;8.40;2.47;;;20.60;99.90;;;;;;4943118;28;36483;-75
2022/05/26 10:01:58;;;;;;;12.27;2.30;;;19.80;99.90;;;;;;4947797;28;39002;-74
2022/05/26 10:04:53;;;;;;;10.65;2.00;;;19.40;99.90;;;;;;4943827;28;38498;-74
2022/05/26 10:07:19;;;;;;;8.40;2.17;;;19.70;99.90;;;;;;4940086;28;38181;-75
2022/05/26 10:10:00;;;;;;;9.50;2.10;;;20.40;99.90;;;;;;4958217;28;36517;-75
2022/05/26 10:12:50;;;;;;;7.28;2.03;;;20.60;99.90;;;;;;4939556;28;37660;-75
2022/05/26 10:15:21;;;;;;;8.90;2.50;;;21.10;99.90;;;;;;4940483;28;39726;-73
2022/05/26 10:18:15;;;;;;;6.50;1.90;;;20.70;99.90;;;;;;4948326;28;38111;-74
2022/05/26 10:20:53;;;;;;;10.02;2.08;;;20.30;99.90;;;;;;4954923;28;47258;-74
2022/05/26 10:23:36;;;;;;;9.98;2.28;;;20.30;99.90;;;;;;4959159;28;38168;-74
2022/05/26 10:26:23;;;;;;;9.15;2.38;;;20.00;99.90;;;;;;4944430;28;38385;-74
2022/05/26 10:29:15;;;;;;;7.45;1.60;;;19.60;99.90;;;;;;4942082;28;38941;-74
2022/05/26 10:32:06;;;;;;;6.38;1.63;;;19.10;99.90;;;;;;4943790;28;49588;-74
2022/05/26 10:34:53;;;;;;;7.75;2.25;;;19.20;99.90;;;;;;4953623;28;48249;-74
2022/05/26 10:38:01;;;;;;;9.07;2.00;;;19.90;99.90;;;;;;4959277;28;39962;-74
2022/05/26 10:40:34;;;;;;;7.45;2.10;;;20.10;99.90;;;;;;4962230;28;37175;-73
2022/05/26 10:43:24;;;;;;;13.40;3.00;;;19.90;99.90;;;;;;4941243;28;37199;-74
2022/05/26 10:45:52;;;;;;;6.93;2.05;;;20.40;99.90;;;;;;4957954;28;47269;-73
2022/05/26 10:48:40;;;;;;;7.97;1.80;;;20.70;99.90;;;;;;4940520;28;38734;-75
2022/05/26 10:51:15;;;;;;;8.35;2.20;;;20.00;99.90;;;;;;4946689;28;38513;-75
2022/05/26 10:53:46;;;;;;;9.50;1.83;;;20.30;99.90;;;;;;4947652;28;37338;-74
2022/05/26 10:56:22;;;;;;;7.95;1.50;;;20.80;99.90;;;;;;4945350;28;38116;-75
2022/05/26 10:58:53;;;;;;;6.88;1.42;;;20.60;99.90;;;;;;4945019;28;38052;-74
2022/05/26 11:01:31;;;;;;;7.20;2.25;;;20.70;99.90;;;;;;4946575;28;38290;-74
2022/05/26 11:04:22;;;;;;;6.93;1.60;;;20.60;99.90;;;;;;4944024;28;37617;-74
2022/05/26 11:06:51;;;;;;;6.40;1.35;;;20.20;99.90;;;;;;4935180;28;47212;-75
2022/05/26 11:09:21;;;;;;;8.43;1.73;;;20.20;99.90;;;;;;4936812;28;37826;-75
2022/05/26 11:11:50;;;;;;;6.25;1.20;;;20.20;99.90;;;;;;4954283;28;37648;-74
2022/05/26 11:17:33;;;;;;;11.20;1.37;;;20.60;99.90;;;;;;4942071;28;38134;-75
2022/05/26 11:20:14;;;;;;;6.07;1.10;;;20.60;99.90;;;;;;4939555;28;39512;-75
2022/05/26 11:22:45;;;;;;;7.45;1.70;;;20.50;99.90;;;;;;4938405;28;49490;-75
2022/05/26 11:25:15;;;;;;;4.88;1.20;;;20.50;99.90;;;;;;4953195;28;38736;-75
2022/05/26 11:27:50;;;;;;;4.57;1.35;;;20.20;99.90;;;;;;4931902;28;40833;-74
2022/05/26 11:36:32;;;;;;;8.73;1.67;;;20.00;99.90;;;;;;4946151;28;38503;-75
2022/05/26 11:39:01;;;;;;;6.90;1.20;;;20.10;99.90;;;;;;4942218;28;39846;-75
2022/05/26 11:41:52;;;;;;;5.78;1.27;;;20.30;99.90;;;;;;4955559;28;47276;-75
2022/05/26 11:44:42;;;;;;;7.20;1.55;;;20.60;99.90;;;;;;4942912;28;39378;-75
2022/05/26 11:47:16;;;;;;;7.07;2.17;;;20.30;99.90;;;;;;4948427;28;38215;-75
2022/05/26 11:49:45;;;;;;;5.25;1.60;;;20.20;99.90;;;;;;4942234;28;40522;-74
2022/05/26 11:52:27;;;;;;;7.65;1.08;;;20.00;99.90;;;;;;4944501;28;38427;-74
2022/05/26 11:54:53;;;;;;;5.00;1.70;;;20.50;99.90;;;;;;4941580;28;38285;-75
2022/05/26 11:57:51;;;;;;;7.18;1.35;;;20.60;99.90;;;;;;4947744;28;37607;-75
2022/05/26 12:00:40;;;;;;;6.70;1.30;;;20.70;99.90;;;;;;4945673;28;38753;-75
2022/05/26 12:03:24;;;;;;;5.28;1.30;;;20.40;99.90;;;;;;4945015;28;38976;-75
2022/05/26 12:06:04;;;;;;;8.48;1.10;;;20.60;99.90;;;;;;4946554;28;38702;-76
2022/05/26 12:08:53;;;;;;;5.00;0.93;;;20.70;99.90;;;;;;4944496;28;48008;-75
2022/05/26 12:11:50;;;;;;;8.43;1.80;;;20.30;99.90;;;;;;4938694;28;39512;-75
2022/05/26 12:14:34;;;;;;;5.78;1.48;;;20.20;99.90;;;;;;4954242;28;39373;-75
2022/05/26 12:17:39;;;;;;;4.63;1.08;;;20.20;99.90;;;;;;4945686;28;39398;-74
2022/05/26 12:20:11;;;;;;;9.63;1.40;;;20.50;99.90;;;;;;4934327;28;48814;-74
2022/05/26 12:22:52;;;;;;;7.82;1.25;;;20.90;99.90;;;;;;4950460;28;38771;-75
2022/05/26 12:25:35;;;;;;;4.88;1.85;;;21.00;99.90;;;;;;4947062;28;39171;-77
2022/05/26 12:28:14;;;;;;;4.40;0.80;;;21.20;99.90;;;;;;4945075;28;39066;-75
2022/05/26 12:30:48;;;;;;;4.38;1.20;;;20.70;99.90;;;;;;4959344;28;47436;-76
2022/05/26 12:33:29;;;;;;;4.53;1.33;;;20.80;99.90;;;;;;4947852;28;40787;-76
2022/05/26 12:36:13;;;;;;;2.97;0.80;;;21.10;99.90;;;;;;4944985;28;38832;-74
2022/05/26 12:39:05;;;;;;;4.82;0.77;;;21.20;99.90;;;;;;4949384;28;49157;-75
2022/05/26 12:42:21;;;;;;;4.43;0.70;;;20.70;99.90;;;;;;4944913;28;49180;-74
2022/05/26 12:45:25;;;;;;;5.47;0.85;;;20.70;99.90;;;;;;4938738;28;47824;-75
2022/05/26 12:48:00;;;;;;;3.40;0.80;;;20.50;99.90;;;;;;4967643;28;48552;-74
2022/05/26 12:50:27;;;;;;;5.20;0.85;;;20.70;99.90;;;;;;4947492;28;38799;-75
2022/05/26 12:52:59;;;;;;;6.20;1.50;;;21.20;99.90;;;;;;4945459;28;38796;-75
2022/05/26 12:55:38;;;;;;;5.10;1.85;;;21.10;99.90;;;;;;4945857;28;38764;-75
2022/05/26 12:58:04;;;;;;;6.78;1.48;;;20.50;99.90;;;;;;4946505;28;38982;-74
2022/05/26 13:00:33;;;;;;;4.43;1.20;;;20.60;99.90;;;;;;4945175;28;38308;-74
2022/05/26 13:03:07;;;;;;;6.15;1.30;;;20.10;99.90;;;;;;4945778;28;38395;-74
2022/05/26 13:06:08;;;;;;;6.00;1.48;;;20.20;99.90;;;;;;4944409;28;47220;-75
2022/05/26 13:08:54;;;;;;;6.75;1.00;;;20.40;99.90;;;;;;4936888;28;48814;-74
2022/05/26 13:11:32;;;;;;;6.78;1.08;;;20.70;99.90;;;;;;4941625;28;38060;-75
2022/05/26 13:14:17;;;;;;;6.90;1.25;;;20.80;99.90;;;;;;4966518;28;36180;-74
2022/05/26 13:16:43;;;;;;;4.00;0.90;;;20.40;99.90;;;;;;4942681;28;47089;-75
2022/05/26 13:19:19;;;;;;;5.38;0.90;;;20.00;99.90;;;;;;4957819;28;37951;-74
2022/05/26 13:21:54;;;;;;;3.65;1.00;;;19.90;99.90;;;;;;4966216;28;37382;-74
2022/05/26 13:24:23;;;;;;;5.22;1.40;;;19.80;99.90;;;;;;4943023;28;36259;-74
2022/05/26 13:26:59;;;;;;;7.65;1.50;;;20.00;99.90;;;;;;4947758;28;38147;-74
2022/05/26 13:29:28;;;;;;;5.03;1.15;;;20.00;99.90;;;;;;4966019;28;38136;-74
2022/05/26 13:34:45;;;;;;;4.47;1.15;;;20.50;99.90;;;;;;4947212;28;49279;-74
2022/05/26 13:37:30;;;;;;;;;;;20.40;99.90;;;;;;4949624;28;39407;-74
2022/05/26 13:40:16;;;;;;;8.23;1.20;;;20.30;99.90;;;;;;4951569;28;38527;-75
2022/05/26 13:42:44;;;;;;;8.25;1.10;;;20.40;99.90;;;;;;4950460;28;47871;-75
2022/05/26 13:45:32;;;;;;;6.53;1.10;;;20.40;99.90;;;;;;4947662;28;37421;-75
2022/05/26 13:48:20;;;;;;;1.95;0.75;;;20.30;99.90;;;;;;4949757;28;39839;-75
2022/05/26 13:50:50;;;;;;;1.85;0.45;;;20.10;99.90;;;;;;4947604;28;48222;-74
2022/05/26 13:53:17;;;;;;;4.97;0.65;;;20.30;99.90;;;;;;4964745;28;37482;-74
2022/05/26 13:55:45;;;;;;;3.63;0.80;;;20.60;99.90;;;;;;4945304;28;37957;-74